sensor_id;sensor_type;location;lat;lon;timestamp;temperature;humidity
14057;DHT22;7103;54.300;10.180;2024-02-21T00:01:37;9.20;1.00
14057;DHT22;7103;54.300;10.180;2024-02-21T00:04:04;9.20;1.00
14057;DHT22;7103;54.300;10.180;2024-02-21T00:06:35;9.20;1.00
14057;DHT22;7103;54.300;10.180;2024-02-21T00:09:02;9.20;1.00
14057;DHT22;7103;54.300;10.180;2024-02-21T00:11:32;9.20;1.00
14057;DHT22;7103;54.300;10.180;2024-02-21T00:13:59;9.20;1.00
14057;DHT22;7103;54.300;10.180;2024-02-21T00:16:26;9.30;1.00
14057;DHT22;7103;54.300;10.180;2024-02-21T00:18:56;9.20;1.00
14057;DHT22;7103;54.300;10.180;2024-02-21T00:21:23;9.20;1.00
14057;DHT22;7103;54.300;10.180;2024-02-21T00:23:50;9.20;1.00
14057;DHT22;7103;54.300;10.180;2024-02-21T00:26:17;9.20;1.00
14057;DHT22;7103;54.300;10.180;2024-02-21T00:28:44;9.20;1.00
14057;DHT22;7103;54.300;10.180;2024-02-21T00:31:11;9.20;1.00
14057;DHT22;7103;54.300;10.180;2024-02-21T00:33:38;9.30;1.00
14057;DHT22;7103;54.300;10.180;2024-02-21T00:36:05;9.20;1.00
14057;DHT22;7103;54.300;10.180;2024-02-21T00:38:32;9.30;1.00
14057;DHT22;7103;54.300;10.180;2024-02-21T00:40:59;9.20;1.00
14057;DHT22;7103;54.300;10.180;2024-02-21T00:43:26;9.30;1.00
14057;DHT22;7103;54.300;10.180;2024-02-21T00:45:53;9.30;1.00
14057;DHT22;7103;54.300;10.180;2024-02-21T00:48:20;9.30;1.00
14057;DHT22;7103;54.300;10.180;2024-02-21T00:50:47;9.30;1.00
14057;DHT22;7103;54.300;10.180;2024-02-21T00:53:14;9.30;1.00
14057;DHT22;7103;54.300;10.180;2024-02-21T00:55:41;9.40;1.00
14057;DHT22;7103;54.300;10.180;2024-02-21T00:58:09;9.40;1.00
14057;DHT22;7103;54.300;10.180;2024-02-21T01:00:36;9.40;1.00
14057;DHT22;7103;54.300;10.180;2024-02-21T01:03:03;9.40;1.00
14057;DHT22;7103;54.300;10.180;2024-02-21T01:05:30;9.40;1.00
14057;DHT22;7103;54.300;10.180;2024-02-21T01:07:57;9.40;1.00
14057;DHT22;7103;54.300;10.180;2024-02-21T01:10:24;9.40;1.00
14057;DHT22;7103;54.300;10.180;2024-02-21T01:12:51;9.40;1.00
14057;DHT22;7103;54.300;10.180;2024-02-21T01:15:18;9.40;1.00
14057;DHT22;7103;54.300;10.180;2024-02-21T01:17:45;9.40;1.00
14057;DHT22;7103;54.300;10.180;2024-02-21T01:20:12;9.40;1.00
14057;DHT22;7103;54.300;10.180;2024-02-21T01:22:39;9.40;1.00
14057;DHT22;7103;54.300;10.180;2024-02-21T01:25:06;9.40;1.00
14057;DHT22;7103;54.300;10.180;2024-02-21T01:27:33;9.40;1.00
14057;DHT22;7103;54.300;10.180;2024-02-21T01:30:00;9.50;1.00
14057;DHT22;7103;54.300;10.180;2024-02-21T01:32:27;9.50;1.00
14057;DHT22;7103;54.300;10.180;2024-02-21T01:34:54;9.50;1.00
14057;DHT22;7103;54.300;10.180;2024-02-21T01:37:21;9.50;1.00
14057;DHT22;7103;54.300;10.180;2024-02-21T01:39:48;9.40;1.00
14057;DHT22;7103;54.300;10.180;2024-02-21T01:42:16;9.50;1.00
14057;DHT22;7103;54.300;10.180;2024-02-21T01:44:43;9.60;1.00
14057;DHT22;7103;54.300;10.180;2024-02-21T01:47:11;9.50;1.00
14057;DHT22;7103;54.300;10.180;2024-02-21T01:49:43;9.50;1.00
14057;DHT22;7103;54.300;10.180;2024-02-21T01:52:11;9.40;1.00
14057;DHT22;7103;54.300;10.180;2024-02-21T01:54:40;9.40;1.00
14057;DHT22;7103;54.300;10.180;2024-02-21T01:57:07;9.50;1.00
14057;DHT22;7103;54.300;10.180;2024-02-21T01:59:34;9.40;1.00
14057;DHT22;7103;54.300;10.180;2024-02-21T02:02:02;9.40;1.00
14057;DHT22;7103;54.300;10.180;2024-02-21T02:04:29;9.50;1.00
14057;DHT22;7103;54.300;10.180;2024-02-21T02:06:58;9.50;1.00
14057;DHT22;7103;54.300;10.180;2024-02-21T02:09:29;9.50;1.00
14057;DHT22;7103;54.300;10.180;2024-02-21T02:11:56;9.50;1.00
14057;DHT22;7103;54.300;10.180;2024-02-21T02:14:25;9.50;1.00
14057;DHT22;7103;54.300;10.180;2024-02-21T02:16:52;9.60;1.00
14057;DHT22;7103;54.300;10.180;2024-02-21T02:19:19;9.50;1.00
14057;DHT22;7103;54.300;10.180;2024-02-21T02:21:51;9.50;1.00
14057;DHT22;7103;54.300;10.180;2024-02-21T02:24:24;9.50;1.00
14057;DHT22;7103;54.300;10.180;2024-02-21T02:26:52;9.60;1.00
14057;DHT22;7103;54.300;10.180;2024-02-21T02:29:19;9.60;1.00
14057;DHT22;7103;54.300;10.180;2024-02-21T02:31:46;9.60;1.00
14057;DHT22;7103;54.300;10.180;2024-02-21T02:34:13;9.70;1.00
14057;DHT22;7103;54.300;10.180;2024-02-21T02:36:40;9.60;1.00
14057;DHT22;7103;54.300;10.180;2024-02-21T02:39:07;9.60;1.00
14057;DHT22;7103;54.300;10.180;2024-02-21T02:41:36;9.60;1.00
14057;DHT22;7103;54.300;10.180;2024-02-21T02:44:03;9.60;1.00
14057;DHT22;7103;54.300;10.180;2024-02-21T02:46:29;9.60;1.00
14057;DHT22;7103;54.300;10.180;2024-02-21T02:48:56;9.60;1.00
14057;DHT22;7103;54.300;10.180;2024-02-21T02:51:24;9.60;1.00
14057;DHT22;7103;54.300;10.180;2024-02-21T02:53:50;9.60;1.00
14057;DHT22;7103;54.300;10.180;2024-02-21T02:56:17;9.60;7.00
14057;DHT22;7103;54.300;10.180;2024-02-21T02:58:44;9.60;22.60
14057;DHT22;7103;54.300;10.180;2024-02-21T03:01:12;9.60;29.00
14057;DHT22;7103;54.300;10.180;2024-02-21T03:03:39;9.60;29.10
14057;DHT22;7103;54.300;10.180;2024-02-21T03:06:06;9.60;34.80
14057;DHT22;7103;54.300;10.180;2024-02-21T03:08:33;9.60;40.70
14057;DHT22;7103;54.300;10.180;2024-02-21T03:11:00;9.60;51.30
14057;DHT22;7103;54.300;10.180;2024-02-21T03:13:28;9.70;58.30
14057;DHT22;7103;54.300;10.180;2024-02-21T03:15:55;9.60;58.40
14057;DHT22;7103;54.300;10.180;2024-02-21T03:18:21;9.60;63.60
14057;DHT22;7103;54.300;10.180;2024-02-21T03:20:48;9.60;65.20
14057;DHT22;7103;54.300;10.180;2024-02-21T03:23:15;9.60;63.70
14057;DHT22;7103;54.300;10.180;2024-02-21T03:25:42;9.60;67.90
14057;DHT22;7103;54.300;10.180;2024-02-21T03:28:10;9.60;69.00
14057;DHT22;7103;54.300;10.180;2024-02-21T03:30:37;9.60;70.40
14057;DHT22;7103;54.300;10.180;2024-02-21T03:33:04;9.60;79.00
14057;DHT22;7103;54.300;10.180;2024-02-21T03:35:31;9.60;81.60
14057;DHT22;7103;54.300;10.180;2024-02-21T03:37:58;9.60;83.70
14057;DHT22;7103;54.300;10.180;2024-02-21T03:40:26;9.60;89.10
14057;DHT22;7103;54.300;10.180;2024-02-21T03:42:53;9.60;91.50
14057;DHT22;7103;54.300;10.180;2024-02-21T03:45:20;9.60;98.10
14057;DHT22;7103;54.300;10.180;2024-02-21T03:47:47;9.60;94.40
14057;DHT22;7103;54.300;10.180;2024-02-21T03:50:14;9.60;94.00
14057;DHT22;7103;54.300;10.180;2024-02-21T03:52:41;9.40;92.70
14057;DHT22;7103;54.300;10.180;2024-02-21T03:55:08;9.50;93.90
14057;DHT22;7103;54.300;10.180;2024-02-21T03:57:35;9.40;96.00
14057;DHT22;7103;54.300;10.180;2024-02-21T04:00:03;9.40;97.70
14057;DHT22;7103;54.300;10.180;2024-02-21T04:02:30;9.40;98.10
14057;DHT22;7103;54.300;10.180;2024-02-21T04:04:57;9.30;93.80
14057;DHT22;7103;54.300;10.180;2024-02-21T04:07:24;9.20;91.80
14057;DHT22;7103;54.300;10.180;2024-02-21T04:09:51;9.20;91.20
14057;DHT22;7103;54.300;10.180;2024-02-21T04:12:18;9.20;83.10
14057;DHT22;7103;54.300;10.180;2024-02-21T04:14:46;9.10;78.80
14057;DHT22;7103;54.300;10.180;2024-02-21T04:17:13;9.10;74.20
14057;DHT22;7103;54.300;10.180;2024-02-21T04:19:40;9.10;78.80
14057;DHT22;7103;54.300;10.180;2024-02-21T04:22:07;9.10;67.60
14057;DHT22;7103;54.300;10.180;2024-02-21T04:24:34;9.00;63.30
14057;DHT22;7103;54.300;10.180;2024-02-21T04:27:01;9.00;57.80
14057;DHT22;7103;54.300;10.180;2024-02-21T04:29:29;9.00;64.30
14057;DHT22;7103;54.300;10.180;2024-02-21T04:31:56;9.00;57.80
14057;DHT22;7103;54.300;10.180;2024-02-21T04:34:26;9.00;57.70
14057;DHT22;7103;54.300;10.180;2024-02-21T04:36:53;9.00;46.20
14057;DHT22;7103;54.300;10.180;2024-02-21T04:39:20;9.00;52.00
14057;DHT22;7103;54.300;10.180;2024-02-21T04:41:47;9.00;43.30
14057;DHT22;7103;54.300;10.180;2024-02-21T04:44:14;8.90;40.40
14057;DHT22;7103;54.300;10.180;2024-02-21T04:46:43;8.80;37.70
14057;DHT22;7103;54.300;10.180;2024-02-21T04:49:10;8.80;39.80
14057;DHT22;7103;54.300;10.180;2024-02-21T04:51:37;8.80;40.70
14057;DHT22;7103;54.300;10.180;2024-02-21T04:54:04;8.80;51.40
14057;DHT22;7103;54.300;10.180;2024-02-21T04:56:31;8.80;52.10
14057;DHT22;7103;54.300;10.180;2024-02-21T04:58:58;8.80;51.80
14057;DHT22;7103;54.300;10.180;2024-02-21T05:01:25;8.90;52.70
14057;DHT22;7103;54.300;10.180;2024-02-21T05:03:52;8.80;54.20
14057;DHT22;7103;54.300;10.180;2024-02-21T05:06:19;8.90;52.90
14057;DHT22;7103;54.300;10.180;2024-02-21T05:08:46;8.80;51.20
14057;DHT22;7103;54.300;10.180;2024-02-21T05:11:14;8.80;47.80
14057;DHT22;7103;54.300;10.180;2024-02-21T05:13:41;8.80;46.00
14057;DHT22;7103;54.300;10.180;2024-02-21T05:16:08;8.80;40.10
14057;DHT22;7103;54.300;10.180;2024-02-21T05:18:35;8.80;36.00
14057;DHT22;7103;54.300;10.180;2024-02-21T05:21:02;8.70;28.30
14057;DHT22;7103;54.300;10.180;2024-02-21T05:23:29;8.70;23.60
14057;DHT22;7103;54.300;10.180;2024-02-21T05:25:56;8.70;28.20
14057;DHT22;7103;54.300;10.180;2024-02-21T05:28:23;8.70;30.70
14057;DHT22;7103;54.300;10.180;2024-02-21T05:30:50;8.80;36.20
14057;DHT22;7103;54.300;10.180;2024-02-21T05:33:17;8.70;34.00
14057;DHT22;7103;54.300;10.180;2024-02-21T05:35:48;8.70;34.00
14057;DHT22;7103;54.300;10.180;2024-02-21T05:38:15;8.70;37.60
14057;DHT22;7103;54.300;10.180;2024-02-21T05:40:44;8.60;35.80
14057;DHT22;7103;54.300;10.180;2024-02-21T05:43:11;8.70;34.00
14057;DHT22;7103;54.300;10.180;2024-02-21T05:45:38;8.70;40.00
14057;DHT22;7103;54.300;10.180;2024-02-21T05:48:05;8.60;37.00
14057;DHT22;7103;54.300;10.180;2024-02-21T05:50:32;8.60;34.50
14057;DHT22;7103;54.300;10.180;2024-02-21T05:52:59;8.60;39.90
14057;DHT22;7103;54.300;10.180;2024-02-21T05:55:26;8.70;45.40
14057;DHT22;7103;54.300;10.180;2024-02-21T05:57:54;8.70;45.00
14057;DHT22;7103;54.300;10.180;2024-02-21T06:00:23;8.70;40.10
14057;DHT22;7103;54.300;10.180;2024-02-21T06:02:50;8.70;36.50
14057;DHT22;7103;54.300;10.180;2024-02-21T06:05:17;8.70;34.10
14057;DHT22;7103;54.300;10.180;2024-02-21T06:07:44;8.60;28.20
14057;DHT22;7103;54.300;10.180;2024-02-21T06:10:11;8.60;23.30
14057;DHT22;7103;54.300;10.180;2024-02-21T06:12:38;8.60;18.70
14057;DHT22;7103;54.300;10.180;2024-02-21T06:15:06;8.60;15.10
14057;DHT22;7103;54.300;10.180;2024-02-21T06:17:33;8.60;8.60
14057;DHT22;7103;54.300;10.180;2024-02-21T06:20:00;8.60;1.00
14057;DHT22;7103;54.300;10.180;2024-02-21T06:22:27;8.60;1.00
14057;DHT22;7103;54.300;10.180;2024-02-21T06:24:54;8.50;1.00
14057;DHT22;7103;54.300;10.180;2024-02-21T06:27:21;8.50;1.00
14057;DHT22;7103;54.300;10.180;2024-02-21T06:29:48;8.40;1.00
14057;DHT22;7103;54.300;10.180;2024-02-21T06:32:15;8.40;1.00
14057;DHT22;7103;54.300;10.180;2024-02-21T06:34:42;8.30;1.00
14057;DHT22;7103;54.300;10.180;2024-02-21T06:37:09;8.30;1.00
14057;DHT22;7103;54.300;10.180;2024-02-21T06:39:37;8.30;1.00
14057;DHT22;7103;54.300;10.180;2024-02-21T06:42:04;8.40;1.00
14057;DHT22;7103;54.300;10.180;2024-02-21T06:44:31;8.20;1.00
14057;DHT22;7103;54.300;10.180;2024-02-21T06:47:03;8.30;1.00
14057;DHT22;7103;54.300;10.180;2024-02-21T06:49:30;8.30;1.00
14057;DHT22;7103;54.300;10.180;2024-02-21T06:51:57;8.40;1.00
14057;DHT22;7103;54.300;10.180;2024-02-21T06:54:24;8.10;1.00
14057;DHT22;7103;54.300;10.180;2024-02-21T06:56:51;8.10;1.00
14057;DHT22;7103;54.300;10.180;2024-02-21T06:59:18;8.10;1.00
14057;DHT22;7103;54.300;10.180;2024-02-21T07:01:49;8.10;1.00
14057;DHT22;7103;54.300;10.180;2024-02-21T07:04:16;8.10;1.00
14057;DHT22;7103;54.300;10.180;2024-02-21T07:06:44;8.10;1.00
14057;DHT22;7103;54.300;10.180;2024-02-21T07:09:11;8.20;1.00
14057;DHT22;7103;54.300;10.180;2024-02-21T07:11:38;8.20;1.00
14057;DHT22;7103;54.300;10.180;2024-02-21T07:14:06;8.00;1.00
14057;DHT22;7103;54.300;10.180;2024-02-21T07:16:35;8.10;1.00
14057;DHT22;7103;54.300;10.180;2024-02-21T07:19:02;8.20;1.00
14057;DHT22;7103;54.300;10.180;2024-02-21T07:21:29;8.10;1.00
14057;DHT22;7103;54.300;10.180;2024-02-21T07:23:56;8.20;1.00
14057;DHT22;7103;54.300;10.180;2024-02-21T07:26:23;8.30;1.00
14057;DHT22;7103;54.300;10.180;2024-02-21T07:28:50;8.30;1.00
14057;DHT22;7103;54.300;10.180;2024-02-21T07:31:17;8.20;1.00
14057;DHT22;7103;54.300;10.180;2024-02-21T07:33:44;8.30;1.00
14057;DHT22;7103;54.300;10.180;2024-02-21T07:36:11;8.10;1.00
14057;DHT22;7103;54.300;10.180;2024-02-21T07:38:39;8.10;1.00
14057;DHT22;7103;54.300;10.180;2024-02-21T07:41:06;8.10;1.00
14057;DHT22;7103;54.300;10.180;2024-02-21T07:43:35;8.10;1.00
14057;DHT22;7103;54.300;10.180;2024-02-21T07:46:02;8.10;1.00
14057;DHT22;7103;54.300;10.180;2024-02-21T07:48:29;8.10;1.00
14057;DHT22;7103;54.300;10.180;2024-02-21T07:51:00;8.10;1.00
14057;DHT22;7103;54.300;10.180;2024-02-21T07:53:27;8.20;1.00
14057;DHT22;7103;54.300;10.180;2024-02-21T07:55:54;8.20;1.00
14057;DHT22;7103;54.300;10.180;2024-02-21T07:58:21;8.20;1.00
14057;DHT22;7103;54.300;10.180;2024-02-21T08:00:48;8.20;1.00
14057;DHT22;7103;54.300;10.180;2024-02-21T08:03:16;8.20;1.00
14057;DHT22;7103;54.300;10.180;2024-02-21T08:05:44;8.30;1.00
14057;DHT22;7103;54.300;10.180;2024-02-21T08:08:14;8.30;1.00
14057;DHT22;7103;54.300;10.180;2024-02-21T08:10:45;8.20;1.00
14057;DHT22;7103;54.300;10.180;2024-02-21T08:13:12;8.10;1.00
14057;DHT22;7103;54.300;10.180;2024-02-21T08:15:39;8.20;1.00
14057;DHT22;7103;54.300;10.180;2024-02-21T08:18:10;8.00;1.00
14057;DHT22;7103;54.300;10.180;2024-02-21T08:20:37;8.00;1.00
14057;DHT22;7103;54.300;10.180;2024-02-21T08:23:04;8.10;1.00
14057;DHT22;7103;54.300;10.180;2024-02-21T08:25:32;8.00;1.00
14057;DHT22;7103;54.300;10.180;2024-02-21T08:28:01;8.10;1.00
14057;DHT22;7103;54.300;10.180;2024-02-21T08:30:28;8.10;1.00
14057;DHT22;7103;54.300;10.180;2024-02-21T08:32:55;8.20;1.00
14057;DHT22;7103;54.300;10.180;2024-02-21T08:35:22;8.20;1.00
14057;DHT22;7103;54.300;10.180;2024-02-21T08:37:50;8.10;1.00
14057;DHT22;7103;54.300;10.180;2024-02-21T08:40:19;8.20;1.00
14057;DHT22;7103;54.300;10.180;2024-02-21T08:42:48;8.20;1.00
14057;DHT22;7103;54.300;10.180;2024-02-21T08:45:15;8.20;1.00
14057;DHT22;7103;54.300;10.180;2024-02-21T08:47:42;8.20;1.00
14057;DHT22;7103;54.300;10.180;2024-02-21T08:50:10;8.20;1.00
14057;DHT22;7103;54.300;10.180;2024-02-21T08:52:53;8.30;1.00
14057;DHT22;7103;54.300;10.180;2024-02-21T08:55:21;8.40;1.00
14057;DHT22;7103;54.300;10.180;2024-02-21T08:57:48;8.60;1.00
14057;DHT22;7103;54.300;10.180;2024-02-21T09:00:16;8.80;1.00
14057;DHT22;7103;54.300;10.180;2024-02-21T09:02:43;8.90;1.00
14057;DHT22;7103;54.300;10.180;2024-02-21T09:05:11;9.00;1.00
14057;DHT22;7103;54.300;10.180;2024-02-21T09:07:38;9.30;99.90
14057;DHT22;7103;54.300;10.180;2024-02-21T09:10:06;9.50;99.90
14057;DHT22;7103;54.300;10.180;2024-02-21T09:12:33;9.80;99.90
14057;DHT22;7103;54.300;10.180;2024-02-21T09:15:00;10.00;99.90
14057;DHT22;7103;54.300;10.180;2024-02-21T09:17:30;10.00;99.90
14057;DHT22;7103;54.300;10.180;2024-02-21T09:19:57;10.20;99.90
14057;DHT22;7103;54.300;10.180;2024-02-21T09:22:30;10.30;99.90
14057;DHT22;7103;54.300;10.180;2024-02-21T09:24:59;10.60;99.90
14057;DHT22;7103;54.300;10.180;2024-02-21T09:27:32;11.10;99.90
14057;DHT22;7103;54.300;10.180;2024-02-21T09:29:59;11.40;99.90
14057;DHT22;7103;54.300;10.180;2024-02-21T09:32:27;11.30;99.90
14057;DHT22;7103;54.300;10.180;2024-02-21T09:34:54;11.80;99.90
14057;DHT22;7103;54.300;10.180;2024-02-21T09:37:29;12.30;99.90
14057;DHT22;7103;54.300;10.180;2024-02-21T09:39:58;12.80;71.80
14057;DHT22;7103;54.300;10.180;2024-02-21T09:42:37;12.90;3.10
14057;DHT22;7103;54.300;10.180;2024-02-21T09:45:09;13.00;1.00
14057;DHT22;7103;54.300;10.180;2024-02-21T09:50:46;12.80;1.00
14057;DHT22;7103;54.300;10.180;2024-02-21T09:53:14;12.60;1.00
14057;DHT22;7103;54.300;10.180;2024-02-21T09:55:43;12.60;1.00
14057;DHT22;7103;54.300;10.180;2024-02-21T09:58:10;12.80;1.00
14057;DHT22;7103;54.300;10.180;2024-02-21T10:00:38;12.80;1.00
14057;DHT22;7103;54.300;10.180;2024-02-21T10:03:05;12.80;1.00
14057;DHT22;7103;54.300;10.180;2024-02-21T10:05:35;13.20;1.00
14057;DHT22;7103;54.300;10.180;2024-02-21T10:08:03;13.50;1.00
14057;DHT22;7103;54.300;10.180;2024-02-21T10:10:44;13.60;1.00
14057;DHT22;7103;54.300;10.180;2024-02-21T10:13:23;13.20;1.00
14057;DHT22;7103;54.300;10.180;2024-02-21T10:16:09;13.10;1.00
14057;DHT22;7103;54.300;10.180;2024-02-21T10:18:36;13.30;1.00
14057;DHT22;7103;54.300;10.180;2024-02-21T10:21:07;13.20;1.00
14057;DHT22;7103;54.300;10.180;2024-02-21T10:24:01;13.20;1.00
14057;DHT22;7103;54.300;10.180;2024-02-21T10:26:28;13.30;1.00
14057;DHT22;7103;54.300;10.180;2024-02-21T10:28:55;13.10;1.00
14057;DHT22;7103;54.300;10.180;2024-02-21T10:31:28;12.70;1.00
14057;DHT22;7103;54.300;10.180;2024-02-21T10:34:00;12.20;1.00
14057;DHT22;7103;54.300;10.180;2024-02-21T10:36:32;12.00;1.00
14057;DHT22;7103;54.300;10.180;2024-02-21T10:38:59;12.10;1.00
14057;DHT22;7103;54.300;10.180;2024-02-21T10:41:26;12.00;1.00
14057;DHT22;7103;54.300;10.180;2024-02-21T10:43:55;12.00;1.00
14057;DHT22;7103;54.300;10.180;2024-02-21T10:46:23;12.00;1.00
14057;DHT22;7103;54.300;10.180;2024-02-21T10:49:20;11.70;1.00
14057;DHT22;7103;54.300;10.180;2024-02-21T10:51:51;11.80;1.00
14057;DHT22;7103;54.300;10.180;2024-02-21T10:57:08;11.80;1.00
14057;DHT22;7103;54.300;10.180;2024-02-21T10:59:37;11.80;1.00
14057;DHT22;7103;54.300;10.180;2024-02-21T11:02:06;11.70;1.00
14057;DHT22;7103;54.300;10.180;2024-02-21T11:04:34;11.80;1.00
14057;DHT22;7103;54.300;10.180;2024-02-21T11:07:05;12.00;1.00
14057;DHT22;7103;54.300;10.180;2024-02-21T11:09:37;12.30;1.00
14057;DHT22;7103;54.300;10.180;2024-02-21T11:12:06;12.30;1.00
14057;DHT22;7103;54.300;10.180;2024-02-21T11:14:38;12.60;1.00
14057;DHT22;7103;54.300;10.180;2024-02-21T11:17:19;13.10;1.00
14057;DHT22;7103;54.300;10.180;2024-02-21T11:19:46;12.90;1.00
14057;DHT22;7103;54.300;10.180;2024-02-21T11:22:19;12.70;1.00
14057;DHT22;7103;54.300;10.180;2024-02-21T11:24:46;12.60;1.00
14057;DHT22;7103;54.300;10.180;2024-02-21T11:27:19;12.60;1.00
14057;DHT22;7103;54.300;10.180;2024-02-21T11:29:55;12.40;1.00
14057;DHT22;7103;54.300;10.180;2024-02-21T11:32:22;12.50;1.00
14057;DHT22;7103;54.300;10.180;2024-02-21T11:35:00;12.50;1.00
14057;DHT22;7103;54.300;10.180;2024-02-21T11:37:33;12.50;1.00
14057;DHT22;7103;54.300;10.180;2024-02-21T11:40:01;12.40;1.00
14057;DHT22;7103;54.300;10.180;2024-02-21T11:42:30;12.40;1.00
14057;DHT22;7103;54.300;10.180;2024-02-21T11:45:00;12.40;1.00
14057;DHT22;7103;54.300;10.180;2024-02-21T11:47:30;12.40;1.00
14057;DHT22;7103;54.300;10.180;2024-02-21T11:49:58;12.40;1.00
14057;DHT22;7103;54.300;10.180;2024-02-21T11:52:25;12.10;1.00
14057;DHT22;7103;54.300;10.180;2024-02-21T11:54:54;12.10;1.00
14057;DHT22;7103;54.300;10.180;2024-02-21T11:57:22;11.90;1.00
14057;DHT22;7103;54.300;10.180;2024-02-21T11:59:51;11.90;1.00
14057;DHT22;7103;54.300;10.180;2024-02-21T12:02:26;12.00;1.00
14057;DHT22;7103;54.300;10.180;2024-02-21T12:04:53;11.90;1.00
14057;DHT22;7103;54.300;10.180;2024-02-21T12:07:21;11.80;1.00
14057;DHT22;7103;54.300;10.180;2024-02-21T12:09:51;11.70;1.00
14057;DHT22;7103;54.300;10.180;2024-02-21T12:12:20;11.70;1.00
14057;DHT22;7103;54.300;10.180;2024-02-21T12:14:56;11.80;1.00
14057;DHT22;7103;54.300;10.180;2024-02-21T12:17:28;11.80;1.00
14057;DHT22;7103;54.300;10.180;2024-02-21T12:19:55;11.80;1.00
14057;DHT22;7103;54.300;10.180;2024-02-21T12:22:25;11.80;1.00
14057;DHT22;7103;54.300;10.180;2024-02-21T12:24:52;11.90;1.00
14057;DHT22;7103;54.300;10.180;2024-02-21T12:27:19;11.80;1.00
14057;DHT22;7103;54.300;10.180;2024-02-21T12:29:46;11.90;1.00
14057;DHT22;7103;54.300;10.180;2024-02-21T12:32:13;11.90;1.00
14057;DHT22;7103;54.300;10.180;2024-02-21T12:34:41;11.90;1.00
14057;DHT22;7103;54.300;10.180;2024-02-21T12:37:21;12.00;1.00
14057;DHT22;7103;54.300;10.180;2024-02-21T12:39:48;12.00;1.00
14057;DHT22;7103;54.300;10.180;2024-02-21T12:42:15;11.90;1.00
14057;DHT22;7103;54.300;10.180;2024-02-21T12:44:42;11.90;1.00
14057;DHT22;7103;54.300;10.180;2024-02-21T12:47:10;11.90;1.00
14057;DHT22;7103;54.300;10.180;2024-02-21T12:49:37;11.70;1.00
14057;DHT22;7103;54.300;10.180;2024-02-21T12:52:11;11.70;1.00
14057;DHT22;7103;54.300;10.180;2024-02-21T12:54:38;11.60;1.00
14057;DHT22;7103;54.300;10.180;2024-02-21T12:57:05;11.60;1.00
14057;DHT22;7103;54.300;10.180;2024-02-21T12:59:32;11.60;1.00
14057;DHT22;7103;54.300;10.180;2024-02-21T13:01:59;11.50;1.00
14057;DHT22;7103;54.300;10.180;2024-02-21T13:04:27;11.60;1.00
14057;DHT22;7103;54.300;10.180;2024-02-21T13:06:54;11.70;1.00
14057;DHT22;7103;54.300;10.180;2024-02-21T13:09:22;11.80;1.00
14057;DHT22;7103;54.300;10.180;2024-02-21T13:11:49;11.90;1.00
14057;DHT22;7103;54.300;10.180;2024-02-21T13:14:18;11.90;1.00
14057;DHT22;7103;54.300;10.180;2024-02-21T13:16:45;11.90;1.00
14057;DHT22;7103;54.300;10.180;2024-02-21T13:19:13;11.90;1.00
14057;DHT22;7103;54.300;10.180;2024-02-21T13:21:45;11.80;1.00
14057;DHT22;7103;54.300;10.180;2024-02-21T13:24:12;11.70;1.00
14057;DHT22;7103;54.300;10.180;2024-02-21T13:26:39;11.60;1.00
14057;DHT22;7103;54.300;10.180;2024-02-21T13:29:06;11.50;12.70
14057;DHT22;7103;54.300;10.180;2024-02-21T13:31:33;11.50;22.30
14057;DHT22;7103;54.300;10.180;2024-02-21T13:34:00;11.20;54.70
14057;DHT22;7103;54.300;10.180;2024-02-21T13:36:27;11.10;90.30
14057;DHT22;7103;54.300;10.180;2024-02-21T13:38:54;11.20;99.90
14057;DHT22;7103;54.300;10.180;2024-02-21T13:41:21;11.10;99.90
14057;DHT22;7103;54.300;10.180;2024-02-21T13:43:50;11.00;99.90
14057;DHT22;7103;54.300;10.180;2024-02-21T13:46:16;11.10;99.90
14057;DHT22;7103;54.300;10.180;2024-02-21T13:48:43;11.00;99.90
14057;DHT22;7103;54.300;10.180;2024-02-21T13:51:10;11.00;99.90
14057;DHT22;7103;54.300;10.180;2024-02-21T13:53:38;11.00;99.90
14057;DHT22;7103;54.300;10.180;2024-02-21T13:56:05;11.00;99.90
14057;DHT22;7103;54.300;10.180;2024-02-21T13:58:32;11.00;99.90
14057;DHT22;7103;54.300;10.180;2024-02-21T14:00:59;10.80;99.90
14057;DHT22;7103;54.300;10.180;2024-02-21T14:03:27;10.70;99.90
14057;DHT22;7103;54.300;10.180;2024-02-21T14:05:54;10.60;99.90
14057;DHT22;7103;54.300;10.180;2024-02-21T14:08:22;10.50;99.90
14057;DHT22;7103;54.300;10.180;2024-02-21T14:10:50;10.40;99.90
14057;DHT22;7103;54.300;10.180;2024-02-21T14:13:17;10.40;99.90
14057;DHT22;7103;54.300;10.180;2024-02-21T14:15:44;10.40;99.90
14057;DHT22;7103;54.300;10.180;2024-02-21T14:18:13;10.50;99.90
14057;DHT22;7103;54.300;10.180;2024-02-21T14:20:40;10.30;99.90
14057;DHT22;7103;54.300;10.180;2024-02-21T14:23:07;10.30;99.90
14057;DHT22;7103;54.300;10.180;2024-02-21T14:25:35;10.10;99.90
14057;DHT22;7103;54.300;10.180;2024-02-21T14:28:06;10.10;99.90
14057;DHT22;7103;54.300;10.180;2024-02-21T14:30:32;10.20;99.90
14057;DHT22;7103;54.300;10.180;2024-02-21T14:32:59;10.20;99.90
14057;DHT22;7103;54.300;10.180;2024-02-21T14:35:26;10.20;99.90
14057;DHT22;7103;54.300;10.180;2024-02-21T14:37:53;10.20;99.90
14057;DHT22;7103;54.300;10.180;2024-02-21T14:40:23;10.10;99.90
14057;DHT22;7103;54.300;10.180;2024-02-21T14:42:50;10.10;99.90
14057;DHT22;7103;54.300;10.180;2024-02-21T14:45:19;10.10;99.90
14057;DHT22;7103;54.300;10.180;2024-02-21T14:47:46;10.10;99.90
14057;DHT22;7103;54.300;10.180;2024-02-21T14:50:13;10.00;99.90
14057;DHT22;7103;54.300;10.180;2024-02-21T14:52:40;10.00;99.90
14057;DHT22;7103;54.300;10.180;2024-02-21T14:55:07;10.00;99.90
14057;DHT22;7103;54.300;10.180;2024-02-21T14:57:35;9.90;99.90
14057;DHT22;7103;54.300;10.180;2024-02-21T15:00:05;10.00;99.90
14057;DHT22;7103;54.300;10.180;2024-02-21T15:02:34;9.90;99.90
14057;DHT22;7103;54.300;10.180;2024-02-21T15:05:02;9.90;99.90
14057;DHT22;7103;54.300;10.180;2024-02-21T15:07:31;10.00;99.90
14057;DHT22;7103;54.300;10.180;2024-02-21T15:09:58;10.00;99.90
14057;DHT22;7103;54.300;10.180;2024-02-21T15:12:25;10.00;99.90
14057;DHT22;7103;54.300;10.180;2024-02-21T15:14:52;10.00;99.90
14057;DHT22;7103;54.300;10.180;2024-02-21T15:17:19;10.00;99.90
14057;DHT22;7103;54.300;10.180;2024-02-21T15:19:46;10.10;99.90
14057;DHT22;7103;54.300;10.180;2024-02-21T15:22:14;9.90;99.90
14057;DHT22;7103;54.300;10.180;2024-02-21T15:24:41;9.90;99.90
14057;DHT22;7103;54.300;10.180;2024-02-21T15:27:09;9.90;99.90
14057;DHT22;7103;54.300;10.180;2024-02-21T15:29:42;9.90;99.90
14057;DHT22;7103;54.300;10.180;2024-02-21T15:32:09;10.00;99.90
14057;DHT22;7103;54.300;10.180;2024-02-21T15:34:36;9.90;99.90
14057;DHT22;7103;54.300;10.180;2024-02-21T15:37:04;9.90;99.90
14057;DHT22;7103;54.300;10.180;2024-02-21T15:39:31;9.90;99.90
14057;DHT22;7103;54.300;10.180;2024-02-21T15:41:58;9.80;99.90
14057;DHT22;7103;54.300;10.180;2024-02-21T15:44:25;9.70;99.90
14057;DHT22;7103;54.300;10.180;2024-02-21T15:46:52;9.70;99.90
14057;DHT22;7103;54.300;10.180;2024-02-21T15:49:20;9.80;99.90
14057;DHT22;7103;54.300;10.180;2024-02-21T15:51:48;9.80;99.90
14057;DHT22;7103;54.300;10.180;2024-02-21T15:54:16;9.70;99.90
14057;DHT22;7103;54.300;10.180;2024-02-21T15:56:50;9.80;99.90
14057;DHT22;7103;54.300;10.180;2024-02-21T15:59:17;9.60;99.90
14057;DHT22;7103;54.300;10.180;2024-02-21T16:01:46;9.60;99.90